createdAt,value
2018-06-08T00:01:13.961Z,100207.64
2018-06-08T00:03:42.000Z,100204.05
2018-06-08T00:06:10.061Z,100202.90
2018-06-08T00:08:38.100Z,100202.36
2018-06-08T00:11:06.255Z,100210.25
2018-06-08T00:13:34.295Z,100204.10
2018-06-08T00:16:02.352Z,100207.97
2018-06-08T00:18:30.415Z,100203.02
2018-06-08T00:20:58.448Z,100204.44
2018-06-08T00:23:26.519Z,100203.89
2018-06-08T00:25:54.706Z,100208.97
2018-06-08T00:28:22.762Z,100205.81
2018-06-08T00:30:50.847Z,100209.30
2018-06-08T00:33:18.913Z,100199.13
2018-06-08T00:35:47.065Z,100197.19
2018-06-08T00:38:15.096Z,100199.45
2018-06-08T00:40:43.151Z,100194.09
2018-06-08T00:43:11.251Z,100193.14
2018-06-08T00:45:39.320Z,100193.02
2018-06-08T00:48:07.372Z,100190.47
2018-06-08T00:50:35.459Z,100191.33
2018-06-08T00:53:04.321Z,100192.39
2018-06-08T00:55:32.648Z,100197.61
2018-06-08T00:58:00.705Z,100198.86
2018-06-08T01:00:28.779Z,100198.31
2018-06-08T01:02:56.816Z,100197.58
2018-06-08T01:05:24.847Z,100192.83
2018-06-08T01:07:53.186Z,100198.25
2018-06-08T01:10:21.228Z,100192.83
2018-06-08T01:12:49.255Z,100192.42
2018-06-08T01:15:17.311Z,100187.41
2018-06-08T01:17:45.355Z,100188.27
2018-06-08T01:20:13.508Z,100193.69
2018-06-08T01:22:41.552Z,100192.10
2018-06-08T01:25:09.567Z,100188.34
2018-06-08T01:27:37.618Z,100190.34
2018-06-08T01:30:05.665Z,100183.34
2018-06-08T01:32:33.717Z,100183.14
2018-06-08T01:35:01.785Z,100180.34
2018-06-08T01:37:30.164Z,100182.77
2018-06-08T01:39:58.324Z,100180.81
2018-06-08T01:42:26.424Z,100191.49
2018-06-08T01:44:54.531Z,100191.49
2018-06-08T01:47:22.597Z,100195.34
2018-06-08T01:49:50.644Z,100196.87
2018-06-08T01:52:18.695Z,100199.32
2018-06-08T01:54:46.739Z,100194.38
2018-06-08T01:57:14.786Z,100199.22
2018-06-08T01:59:42.829Z,100199.98
2018-06-08T02:02:10.859Z,100201.22
2018-06-08T02:04:38.908Z,100202.98
2018-06-08T02:07:06.948Z,100207.19
2018-06-08T02:09:34.987Z,100210.59
2018-06-08T02:12:03.385Z,100204.83
2018-06-08T02:14:31.407Z,100208.84
2018-06-08T02:16:59.445Z,100209.25
2018-06-08T02:19:27.496Z,100199.28
2018-06-08T02:21:55.523Z,100204.88
2018-06-08T02:24:23.903Z,100207.30
2018-06-08T02:26:51.936Z,100212.55
2018-06-08T02:29:19.955Z,100211.20
2018-06-08T02:31:48.167Z,100213.21
2018-06-08T02:34:16.212Z,100215.66
2018-06-08T02:36:44.255Z,100209.86
2018-06-08T02:39:12.335Z,100203.90
2018-06-08T02:41:40.375Z,100204.15
2018-06-08T02:44:08.419Z,100201.16
2018-06-08T02:46:36.468Z,100203.19
2018-06-08T02:49:04.524Z,100198.60
2018-06-08T02:51:32.562Z,100205.20
2018-06-08T02:54:00.714Z,100198.80
2018-06-08T02:56:28.750Z,100194.59
2018-06-08T02:58:56.779Z,100194.15
2018-06-08T03:01:24.909Z,100191.79
2018-06-08T03:03:52.956Z,100183.19
2018-06-08T03:06:21.047Z,100188.00
2018-06-08T03:08:49.121Z,100190.58
2018-06-08T03:11:17.158Z,100191.98
2018-06-08T03:13:45.231Z,100190.74
2018-06-08T03:16:13.277Z,100187.69
2018-06-08T03:18:41.320Z,100192.69
2018-06-08T03:21:09.352Z,100187.44
2018-06-08T03:23:37.383Z,100186.03
2018-06-08T03:26:05.432Z,100185.02
2018-06-08T03:28:33.743Z,100183.37
2018-06-08T03:31:02.056Z,100188.12
2018-06-08T03:33:30.100Z,100188.22
2018-06-08T03:35:58.144Z,100190.97
2018-06-08T03:38:26.192Z,100189.31
2018-06-08T03:40:54.224Z,100187.05
2018-06-08T03:43:22.251Z,100189.38
2018-06-08T03:45:50.539Z,100179.61
2018-06-08T03:48:18.607Z,100182.92
2018-06-08T03:50:46.672Z,100183.37
2018-06-08T03:53:14.720Z,100180.08
2018-06-08T03:55:42.752Z,100179.37
2018-06-08T03:58:10.947Z,100180.97
2018-06-08T04:00:38.989Z,100177.81
2018-06-08T04:03:07.184Z,100176.83
2018-06-08T04:05:35.237Z,100179.92
2018-06-08T04:08:03.288Z,100180.39
2018-06-08T04:10:31.648Z,100184.09
2018-06-08T04:12:59.674Z,100188.34
2018-06-08T04:15:27.733Z,100188.44
2018-06-08T04:17:55.804Z,100180.30
2018-06-08T04:20:23.855Z,100183.56
2018-06-08T04:22:51.923Z,100183.58
2018-06-08T04:25:19.969Z,100166.89
2018-06-08T04:27:48.000Z,100178.92
2018-06-08T04:30:16.051Z,100185.44
2018-06-08T04:32:44.093Z,100185.96
2018-06-08T04:35:12.383Z,100191.88
2018-06-08T04:37:40.409Z,100183.22
2018-06-08T04:40:08.676Z,100177.33
2018-06-08T04:42:36.723Z,100170.13
2018-06-08T04:45:04.796Z,100171.27
2018-06-08T04:47:32.911Z,100172.63
2018-06-08T04:50:01.032Z,100181.70
2018-06-08T04:52:29.079Z,100175.97
2018-06-08T04:54:57.134Z,100181.25
2018-06-08T04:57:25.189Z,100185.41
2018-06-08T04:59:53.496Z,100182.42
2018-06-08T05:02:21.544Z,100181.02
2018-06-08T05:04:49.571Z,100185.03
2018-06-08T05:07:17.624Z,100184.55
2018-06-08T05:09:45.714Z,100188.08
2018-06-08T05:12:13.713Z,100189.25
2018-06-08T05:14:41.750Z,100194.23
2018-06-08T05:17:10.132Z,100199.19
2018-06-08T05:19:38.156Z,100198.86
2018-06-08T05:22:06.212Z,100195.27
2018-06-08T05:24:34.280Z,100203.56
2018-06-08T05:27:02.324Z,100202.30
2018-06-08T05:29:30.752Z,100211.12
2018-06-08T05:31:58.793Z,100212.42
2018-06-08T05:34:26.836Z,100217.01
2018-06-08T05:36:54.875Z,100215.44
2018-06-08T05:39:22.898Z,100215.22
2018-06-08T05:41:50.956Z,100223.35
2018-06-08T05:44:18.989Z,100219.73
2018-06-08T05:46:47.240Z,100215.09
2018-06-08T05:49:15.300Z,100214.52
2018-06-08T05:51:43.323Z,100216.25
2018-06-08T05:54:11.393Z,100215.03
2018-06-08T05:56:39.464Z,100217.43
2018-06-08T05:59:07.507Z,100210.47
2018-06-08T06:01:35.548Z,100216.03
2018-06-08T06:04:03.604Z,100217.49
2018-06-08T06:06:31.664Z,100220.01
2018-06-08T06:08:59.702Z,100217.17
2018-06-08T06:11:27.763Z,100222.39
2018-06-08T06:13:55.835Z,100219.89
2018-06-08T06:16:23.867Z,100218.44
2018-06-08T06:18:51.887Z,100223.86
2018-06-08T06:21:20.010Z,100218.93
2018-06-08T06:23:48.040Z,100220.33
2018-06-08T06:26:16.283Z,100228.34
2018-06-08T06:28:44.313Z,100225.34
2018-06-08T06:31:12.364Z,100226.77
2018-06-08T06:33:40.419Z,100219.28
2018-06-08T06:36:08.481Z,100222.41
2018-06-08T06:38:36.536Z,100226.27
2018-06-08T06:41:04.569Z,100218.95
2018-06-08T06:43:32.599Z,100228.49
2018-06-08T06:46:00.641Z,100228.63
2018-06-08T06:48:35.189Z,100236.63
2018-06-08T06:51:03.264Z,100236.84
2018-06-08T06:53:31.312Z,100223.27
2018-06-08T06:55:59.371Z,100230.97
2018-06-08T06:58:27.417Z,100227.86
2018-06-08T07:00:55.576Z,100222.52
2018-06-08T07:03:23.650Z,100227.89
2018-06-08T07:05:51.685Z,100230.59
2018-06-08T07:08:20.011Z,100226.66
2018-06-08T07:10:48.151Z,100223.44
2018-06-08T07:13:16.185Z,100218.12
2018-06-08T07:15:44.231Z,100216.37
2018-06-08T07:18:12.303Z,100212.88
2018-06-08T07:20:40.363Z,100216.25
2018-06-08T07:23:08.500Z,100218.48
2018-06-08T07:25:36.564Z,100215.47
2018-06-08T07:28:04.667Z,100221.69
2018-06-08T07:30:32.715Z,100219.67
2018-06-08T07:33:00.767Z,100221.45
2018-06-08T07:35:28.952Z,100220.70
2018-06-08T07:37:57.016Z,100219.78
2018-06-08T07:40:25.068Z,100217.05
2018-06-08T07:42:53.115Z,100217.55
2018-06-08T07:45:21.152Z,100217.30
2018-06-08T07:47:49.251Z,100219.08
2018-06-08T07:50:17.284Z,100214.67
2018-06-08T07:52:45.686Z,100211.98
2018-06-08T07:55:13.696Z,100219.52
2018-06-08T07:57:41.739Z,100211.56
2018-06-08T08:00:09.787Z,100210.95
2018-06-08T08:02:37.852Z,100207.71
2018-06-08T08:05:05.939Z,100210.36
2018-06-08T08:07:34.132Z,100212.18
2018-06-08T08:10:02.096Z,100215.73
2018-06-08T08:12:30.164Z,100212.67
2018-06-08T08:14:58.236Z,100213.33
2018-06-08T08:17:26.278Z,100199.14
2018-06-08T08:22:28.711Z,100223.39
2018-06-08T08:24:56.743Z,100222.12
2018-06-08T08:27:24.802Z,100220.20
2018-06-08T08:29:52.829Z,100222.44
2018-06-08T08:32:20.887Z,100226.86
2018-06-08T08:34:48.949Z,100224.25
2018-06-08T08:37:16.983Z,100230.55
2018-06-08T08:39:45.053Z,100222.83
2018-06-08T08:42:13.259Z,100234.78
2018-06-08T08:44:41.303Z,100227.79
2018-06-08T08:47:09.339Z,100234.49
2018-06-08T08:49:37.375Z,100227.13
2018-06-08T08:52:05.423Z,100227.58
2018-06-08T08:54:33.431Z,100230.02
2018-06-08T08:57:01.487Z,100231.39
2018-06-08T08:59:29.540Z,100227.18
2018-06-08T09:01:57.599Z,100233.98
2018-06-08T09:04:25.643Z,100231.20
2018-06-08T09:06:53.677Z,100229.33
2018-06-08T09:09:21.728Z,100226.12
2018-06-08T09:11:49.768Z,100219.34
2018-06-08T09:14:17.790Z,100215.20
2018-06-08T09:16:45.855Z,100211.86
2018-06-08T09:19:13.886Z,100214.55
2018-06-08T09:21:41.985Z,100216.22
2018-06-08T09:24:10.036Z,100206.88
2018-06-08T09:26:38.519Z,100211.63
2018-06-08T09:29:06.570Z,100214.34
2018-06-08T09:31:35.602Z,100211.49
2018-06-08T09:34:03.643Z,100212.13
2018-06-08T09:36:31.701Z,100213.99
2018-06-08T09:38:59.761Z,100208.62
2018-06-08T09:41:27.807Z,100208.39
2018-06-08T09:43:55.854Z,100204.09
2018-06-08T09:46:24.862Z,100207.95
2018-06-08T09:48:52.896Z,100209.75
2018-06-08T09:51:21.488Z,100201.73
2018-06-08T09:53:49.695Z,100205.95
2018-06-08T09:56:17.810Z,100212.53
2018-06-08T09:58:45.891Z,100205.70
2018-06-08T10:01:13.960Z,100213.89
2018-06-08T10:03:41.991Z,100203.45
2018-06-08T10:06:10.539Z,100204.77
2018-06-08T10:08:38.626Z,100204.09
2018-06-08T10:11:06.715Z,100203.77
2018-06-08T10:13:34.808Z,100213.05
2018-06-08T10:16:02.876Z,100205.61
2018-06-08T10:18:30.990Z,100198.70
2018-06-08T10:20:59.041Z,100197.67
2018-06-08T10:23:27.964Z,100190.65
2018-06-08T10:25:56.029Z,100198.07
2018-06-08T10:28:24.082Z,100186.98
2018-06-08T10:30:52.327Z,100189.62
2018-06-08T10:33:20.527Z,100184.84
2018-06-08T10:41:43.153Z,100166.26
2018-06-08T10:44:11.287Z,100173.75
2018-06-08T10:46:39.371Z,100171.23
2018-06-08T10:49:07.452Z,100167.39
2018-06-08T10:51:35.551Z,100162.34
2018-06-08T10:54:03.623Z,100155.27
2018-06-08T10:56:37.468Z,100158.89
2018-06-08T10:59:05.523Z,100149.28
2018-06-08T11:01:33.587Z,100161.66
2018-06-08T11:04:01.663Z,100169.61
2018-06-08T11:06:29.706Z,100169.30
2018-06-08T11:08:57.774Z,100162.30
2018-06-08T11:11:25.847Z,100152.66
2018-06-08T11:13:54.091Z,100151.29
2018-06-08T11:16:22.135Z,100154.83
2018-06-08T11:18:50.194Z,100148.90
2018-06-08T11:21:18.251Z,100143.40
2018-06-08T11:23:46.337Z,100143.47
2018-06-08T11:26:14.447Z,100140.73
2018-06-08T11:28:42.719Z,100156.22
2018-06-08T11:31:10.862Z,100163.56
2018-06-08T11:33:38.916Z,100167.22
2018-06-08T11:36:06.981Z,100164.19
2018-06-08T11:38:35.056Z,100175.48
2018-06-08T11:41:03.135Z,100187.91
2018-06-08T11:43:31.524Z,100217.12
2018-06-08T11:45:59.563Z,100242.34
2018-06-08T11:48:27.606Z,100226.97
2018-06-08T11:50:55.652Z,100202.10
2018-06-08T11:53:23.711Z,100208.16
2018-06-08T11:55:51.823Z,100242.73
2018-06-08T11:58:19.908Z,100261.56
2018-06-08T12:00:48.000Z,100261.58
2018-06-08T12:03:16.060Z,100273.49
2018-06-08T12:05:44.133Z,100290.63
2018-06-08T12:08:12.262Z,100302.81
2018-06-08T12:10:40.345Z,100287.75
2018-06-08T12:13:08.491Z,100285.19
2018-06-08T12:15:36.573Z,100288.53
2018-06-08T12:18:04.667Z,100303.70
2018-06-08T12:20:32.771Z,100319.70
2018-06-08T12:23:00.811Z,100301.61
2018-06-08T12:25:28.868Z,100291.61
2018-06-08T12:27:56.936Z,100298.05
2018-06-08T12:30:25.423Z,100289.79
2018-06-08T12:32:53.724Z,100272.19
2018-06-08T12:35:21.885Z,100263.23
2018-06-08T12:37:49.934Z,100266.88
2018-06-08T12:40:18.167Z,100273.23
2018-06-08T12:42:47.256Z,100281.48
2018-06-08T12:45:15.332Z,100271.91
2018-06-08T12:47:43.416Z,100285.44
2018-06-08T12:50:11.562Z,100281.44
2018-06-08T12:52:39.698Z,100279.38
2018-06-08T12:55:07.811Z,100287.84
2018-06-08T12:57:36.211Z,100288.02
2018-06-08T13:00:04.701Z,100281.67
2018-06-08T13:02:32.791Z,100282.34
2018-06-08T13:05:00.873Z,100267.48
2018-06-08T13:07:29.002Z,100271.64
2018-06-08T13:09:57.050Z,100259.05
2018-06-08T13:12:25.121Z,100258.78
2018-06-08T13:14:53.197Z,100265.97
2018-06-08T13:17:21.288Z,100268.27
2018-06-08T13:19:49.336Z,100261.02
2018-06-08T13:22:17.398Z,100260.92
2018-06-08T13:24:45.480Z,100267.26
2018-06-08T13:27:13.636Z,100261.48
2018-06-08T13:29:41.732Z,100252.14
2018-06-08T13:32:09.776Z,100246.35
2018-06-08T13:34:37.849Z,100244.39
2018-06-08T13:37:05.916Z,100239.88
2018-06-08T13:39:34.041Z,100247.67
2018-06-08T13:42:02.037Z,100239.28
2018-06-08T13:44:30.118Z,100235.33
2018-06-08T13:46:58.147Z,100239.02
2018-06-08T13:49:26.199Z,100242.89
2018-06-08T13:51:54.241Z,100239.55
2018-06-08T13:54:22.666Z,100231.83
2018-06-08T13:56:51.357Z,100230.87
2018-06-08T13:59:19.939Z,100235.55
2018-06-08T14:01:47.993Z,100235.17
2018-06-08T14:04:16.096Z,100224.61
2018-06-08T14:06:44.149Z,100213.11
2018-06-08T14:09:12.202Z,100199.56
2018-06-08T14:11:40.275Z,100193.88
2018-06-08T14:14:08.361Z,100190.73
2018-06-08T14:16:36.435Z,100199.50
2018-06-08T14:19:04.622Z,100187.89
2018-06-08T14:21:32.651Z,100175.94
2018-06-08T14:24:00.729Z,100179.91
2018-06-08T14:26:28.788Z,100174.87
2018-06-08T14:28:56.825Z,100171.44
2018-06-08T14:31:24.871Z,100174.22
2018-06-08T14:33:52.907Z,100173.26
2018-06-08T14:36:20.979Z,100174.00
2018-06-08T14:38:49.063Z,100174.80
2018-06-08T14:41:17.232Z,100180.23
2018-06-08T14:43:45.302Z,100186.35
2018-06-08T14:46:13.337Z,100180.70
2018-06-08T14:48:41.363Z,100183.60
2018-06-08T14:51:09.417Z,100186.25
2018-06-08T14:53:37.495Z,100193.80
2018-06-08T14:56:06.028Z,100187.70
2018-06-08T14:58:34.072Z,100189.10
2018-06-08T15:01:02.142Z,100184.09
2018-06-08T15:03:30.227Z,100180.84
2018-06-08T15:05:58.303Z,100185.73
2018-06-08T15:08:26.319Z,100185.47
2018-06-08T15:10:54.416Z,100186.98
2018-06-08T15:13:22.493Z,100186.09
2018-06-08T15:15:50.528Z,100183.78
2018-06-08T15:18:18.591Z,100186.23
2018-06-08T15:20:46.623Z,100177.48
2018-06-08T15:23:14.747Z,100170.86
2018-06-08T15:25:42.788Z,100173.49
2018-06-08T15:28:10.861Z,100167.70
2018-06-08T15:30:38.920Z,100163.77
2018-06-08T15:33:06.983Z,100160.41
2018-06-08T15:35:35.014Z,100154.16
2018-06-08T15:38:03.127Z,100156.40
2018-06-08T15:40:31.193Z,100150.19
2018-06-08T15:42:59.289Z,100145.12
2018-06-08T15:45:27.351Z,100145.73
2018-06-08T15:47:55.408Z,100149.38
2018-06-08T15:50:23.501Z,100148.80
2018-06-08T15:52:51.545Z,100145.25
2018-06-08T15:55:19.743Z,100148.66
2018-06-08T15:57:47.874Z,100142.94
2018-06-08T16:00:15.984Z,100143.62
2018-06-08T16:02:44.257Z,100149.85
2018-06-08T16:05:12.325Z,100156.14
2018-06-08T16:07:40.374Z,100154.75
2018-06-08T16:10:08.424Z,100144.50
2018-06-08T16:12:36.505Z,100138.07
2018-06-08T16:15:04.562Z,100130.44
2018-06-08T16:17:32.595Z,100129.11
2018-06-08T16:20:00.691Z,100126.70
2018-06-08T16:22:28.833Z,100129.59
2018-06-08T16:24:56.835Z,100126.03
2018-06-08T16:27:24.876Z,100133.41
2018-06-08T16:29:58.291Z,100128.88
2018-06-08T16:32:26.339Z,100122.89
2018-06-08T16:34:54.392Z,100111.38
2018-06-08T16:37:22.413Z,100107.88
2018-06-08T16:39:50.447Z,100104.98
2018-06-08T16:42:18.504Z,100103.77
2018-06-08T16:44:46.535Z,100105.48
2018-06-08T16:47:14.614Z,100105.32
2018-06-08T16:49:42.645Z,100108.59
2018-06-08T16:52:10.684Z,100117.75
2018-06-08T16:54:38.719Z,100117.17
2018-06-08T16:57:06.792Z,100116.06
2018-06-08T16:59:37.047Z,100113.78
2018-06-08T17:02:05.108Z,100117.53
2018-06-08T17:04:33.167Z,100121.73
2018-06-08T17:07:01.299Z,100116.92
2018-06-08T17:09:29.351Z,100122.89
2018-06-08T17:11:57.423Z,100126.13
2018-06-08T17:14:25.512Z,100124.94
2018-06-08T17:16:53.560Z,100127.72
2018-06-08T17:19:21.613Z,100121.50
2018-06-08T17:21:50.878Z,100124.68
2018-06-08T17:24:18.928Z,100127.55
2018-06-08T17:26:47.258Z,100127.07
2018-06-08T17:29:15.419Z,100129.00
2018-06-08T17:31:43.450Z,100126.66
2018-06-08T17:34:11.528Z,100130.54
2018-06-08T17:36:39.595Z,100134.20
2018-06-08T17:39:08.073Z,100133.22
2018-06-08T17:41:36.142Z,100138.50
2018-06-08T17:44:04.195Z,100138.80
2018-06-08T17:46:32.315Z,100139.30
2018-06-08T17:49:00.467Z,100139.12
2018-06-08T17:51:28.588Z,100133.30
2018-06-08T17:53:56.690Z,100146.97
2018-06-08T17:56:24.731Z,100146.98
2018-06-08T17:58:52.777Z,100152.37
2018-06-08T18:01:20.842Z,100149.88
2018-06-08T18:03:48.916Z,100150.09
2018-06-08T18:06:16.975Z,100154.80
2018-06-08T18:08:45.041Z,100150.66
2018-06-08T18:11:13.143Z,100144.03
2018-06-08T18:13:41.311Z,100147.28
2018-06-08T18:16:09.363Z,100145.38
2018-06-08T18:18:37.403Z,100144.27
2018-06-08T18:21:05.476Z,100150.23
2018-06-08T18:23:33.660Z,100144.59
2018-06-08T18:26:01.827Z,100153.27
2018-06-08T18:28:30.045Z,100148.44
2018-06-08T18:30:58.347Z,100152.77
2018-06-08T18:33:26.483Z,100152.78
2018-06-08T18:35:55.105Z,100154.76
2018-06-08T18:38:23.339Z,100151.81
2018-06-08T18:40:51.439Z,100147.27
2018-06-08T18:43:20.904Z,100149.70
2018-06-08T18:45:49.595Z,100152.61
2018-06-08T18:48:18.113Z,100148.09
2018-06-08T18:50:46.169Z,100151.20
2018-06-08T18:53:14.423Z,100152.58
2018-06-08T18:55:42.472Z,100153.92
2018-06-08T18:58:10.655Z,100157.21
2018-06-08T19:00:38.716Z,100152.48
2018-06-08T19:03:07.043Z,100154.44
2018-06-08T19:05:35.100Z,100152.09
2018-06-08T19:08:03.139Z,100145.89
2018-06-08T19:10:31.207Z,100146.23
2018-06-08T19:12:59.320Z,100153.67
2018-06-08T19:15:27.618Z,100154.11
2018-06-08T19:17:55.667Z,100154.16
2018-06-08T19:20:23.960Z,100160.05
2018-06-08T19:22:52.655Z,100164.09
2018-06-08T19:25:20.980Z,100159.20
2018-06-08T19:27:49.048Z,100161.18
2018-06-08T19:30:17.111Z,100166.83
2018-06-08T19:32:45.374Z,100168.24
2018-06-08T19:35:13.424Z,100168.44
2018-06-08T19:37:41.544Z,100173.03
2018-06-08T19:40:09.789Z,100169.02
2018-06-08T19:42:37.848Z,100173.43
2018-06-08T19:45:05.944Z,100176.55
2018-06-08T19:47:34.154Z,100183.14
2018-06-08T19:50:02.228Z,100181.31
2018-06-08T19:52:30.280Z,100185.27
2018-06-08T19:54:58.892Z,100182.82
2018-06-08T19:57:27.023Z,100185.98
2018-06-08T19:59:55.089Z,100187.11
2018-06-08T20:02:23.259Z,100188.97
2018-06-08T20:04:51.295Z,100190.27
2018-06-08T20:07:19.442Z,100189.83
2018-06-08T20:09:47.507Z,100196.70
2018-06-08T20:12:15.545Z,100198.80
2018-06-08T20:14:43.607Z,100190.30
2018-06-08T20:17:11.765Z,100192.31
2018-06-08T20:19:39.827Z,100200.02
2018-06-08T20:22:07.879Z,100193.34
2018-06-08T20:24:36.032Z,100191.48
2018-06-08T20:27:04.215Z,100195.28
2018-06-08T20:29:32.291Z,100195.55
2018-06-08T20:32:00.435Z,100190.27
2018-06-08T20:34:28.499Z,100197.70
2018-06-08T20:36:56.624Z,100194.37
2018-06-08T20:39:24.668Z,100195.42
2018-06-08T20:41:52.731Z,100194.36
2018-06-08T20:44:20.780Z,100188.39
2018-06-08T20:46:48.891Z,100189.05
2018-06-08T20:49:16.961Z,100186.05
2018-06-08T20:51:45.013Z,100192.91
2018-06-08T20:54:13.222Z,100191.31
2018-06-08T20:56:41.261Z,100191.47
2018-06-08T20:59:09.330Z,100185.24
2018-06-08T21:01:37.367Z,100188.05
2018-06-08T21:04:05.555Z,100187.78
2018-06-08T21:06:33.668Z,100184.44
2018-06-08T21:09:01.710Z,100188.03
2018-06-08T21:11:29.924Z,100182.84
2018-06-08T21:13:57.992Z,100188.64
2018-06-08T21:16:26.082Z,100189.70
2018-06-08T21:18:54.147Z,100187.92
2018-06-08T21:21:22.322Z,100191.78
2018-06-08T21:23:50.494Z,100184.41
2018-06-08T21:26:18.863Z,100187.22
2018-06-08T21:28:46.992Z,100195.27
2018-06-08T21:31:15.056Z,100188.89
2018-06-08T21:33:43.518Z,100198.94
2018-06-08T21:36:11.640Z,100197.19
2018-06-08T21:38:39.704Z,100191.38
2018-06-08T21:41:08.040Z,100201.20
2018-06-08T21:43:36.292Z,100195.24
2018-06-08T21:46:04.348Z,100193.68
2018-06-08T21:48:32.411Z,100201.72
2018-06-08T21:51:00.573Z,100201.37
2018-06-08T21:53:28.616Z,100200.58
2018-06-08T21:55:57.534Z,100204.69
2018-06-08T21:58:26.382Z,100197.03
2018-06-08T22:00:54.524Z,100205.64
2018-06-08T22:03:22.778Z,100204.69
2018-06-08T22:05:52.595Z,100210.30
2018-06-08T22:08:20.647Z,100198.44
2018-06-08T22:10:48.799Z,100201.88
2018-06-08T22:13:16.859Z,100197.48
2018-06-08T22:15:45.850Z,100200.70
2018-06-08T22:18:15.475Z,100193.16
2018-06-08T22:20:44.534Z,100191.91
2018-06-08T22:23:13.041Z,100189.71
2018-06-08T22:25:41.927Z,100195.32
2018-06-08T22:28:14.408Z,100192.96
2018-06-08T22:30:43.586Z,100186.55
2018-06-08T22:33:12.614Z,100193.37
2018-06-08T22:35:41.384Z,100193.98
2018-06-08T22:38:09.427Z,100189.07
2018-06-08T22:40:38.449Z,100200.52
2018-06-08T22:43:06.587Z,100192.95
2018-06-08T22:45:34.699Z,100186.27
2018-06-08T22:48:03.539Z,100181.99
2018-06-08T22:50:31.628Z,100177.94
2018-06-08T22:52:59.655Z,100175.14
2018-06-08T22:55:28.013Z,100168.79
2018-06-08T22:57:56.172Z,100172.39
2018-06-08T23:00:25.134Z,100169.59
2018-06-08T23:02:53.345Z,100165.38
2018-06-08T23:05:22.145Z,100172.39
2018-06-08T23:07:50.241Z,100173.60
2018-06-08T23:10:18.299Z,100180.06
2018-06-08T23:12:46.350Z,100177.32
2018-06-08T23:15:14.397Z,100178.37
2018-06-08T23:17:42.439Z,100175.02
2018-06-08T23:20:10.483Z,100175.46
2018-06-08T23:22:38.573Z,100165.71
2018-06-08T23:25:06.691Z,100161.56
2018-06-08T23:27:34.915Z,100160.22
2018-06-08T23:30:03.138Z,100156.87
2018-06-08T23:32:31.180Z,100151.57
2018-06-08T23:34:59.503Z,100149.63
2018-06-08T23:37:27.551Z,100151.82
2018-06-08T23:39:55.575Z,100154.02
2018-06-08T23:42:23.622Z,100153.66
2018-06-08T23:44:51.977Z,100155.31
2018-06-08T23:47:20.032Z,100157.12
2018-06-08T23:49:48.130Z,100152.92
2018-06-08T23:52:16.192Z,100152.63
2018-06-08T23:54:44.236Z,100152.73
2018-06-08T23:57:12.292Z,100141.98
2018-06-08T23:59:40.347Z,100143.49
